sensor_id;sensor_type;location;lat;lon;timestamp;P1;durP1;ratioP1;P2;durP2;ratioP2
79691;SDS011;69158;55.592;37.610;2023-05-07T00:01:23;9.32;;;4.50;;
79691;SDS011;69158;55.592;37.610;2023-05-07T00:04:09;11.73;;;4.00;;
79691;SDS011;69158;55.592;37.610;2023-05-07T00:06:55;9.73;;;5.40;;
79691;SDS011;69158;55.592;37.610;2023-05-07T00:09:41;9.50;;;4.57;;
79691;SDS011;69158;55.592;37.610;2023-05-07T00:12:27;8.38;;;4.57;;
79691;SDS011;69158;55.592;37.610;2023-05-07T00:15:16;10.32;;;5.20;;
79691;SDS011;69158;55.592;37.610;2023-05-07T00:18:02;8.88;;;4.20;;
79691;SDS011;69158;55.592;37.610;2023-05-07T00:20:49;9.32;;;4.03;;
79691;SDS011;69158;55.592;37.610;2023-05-07T00:23:37;9.88;;;4.13;;
79691;SDS011;69158;55.592;37.610;2023-05-07T00:26:24;9.75;;;4.47;;
79691;SDS011;69158;55.592;37.610;2023-05-07T00:29:10;10.25;;;4.72;;
79691;SDS011;69158;55.592;37.610;2023-05-07T00:31:56;9.15;;;4.90;;
79691;SDS011;69158;55.592;37.610;2023-05-07T00:34:42;10.02;;;3.90;;
79691;SDS011;69158;55.592;37.610;2023-05-07T00:37:28;10.88;;;4.80;;
79691;SDS011;69158;55.592;37.610;2023-05-07T00:40:16;10.05;;;5.13;;
79691;SDS011;69158;55.592;37.610;2023-05-07T00:43:02;10.60;;;5.75;;
79691;SDS011;69158;55.592;37.610;2023-05-07T00:45:53;10.80;;;4.93;;
79691;SDS011;69158;55.592;37.610;2023-05-07T00:48:39;9.27;;;5.35;;
79691;SDS011;69158;55.592;37.610;2023-05-07T00:51:26;11.13;;;4.53;;
79691;SDS011;69158;55.592;37.610;2023-05-07T00:54:14;9.20;;;3.63;;
79691;SDS011;69158;55.592;37.610;2023-05-07T00:57:00;11.63;;;4.18;;
79691;SDS011;69158;55.592;37.610;2023-05-07T00:59:48;9.65;;;4.38;;
79691;SDS011;69158;55.592;37.610;2023-05-07T01:02:35;10.18;;;4.10;;
79691;SDS011;69158;55.592;37.610;2023-05-07T01:05:22;9.60;;;4.32;;
79691;SDS011;69158;55.592;37.610;2023-05-07T01:08:09;10.70;;;4.25;;
79691;SDS011;69158;55.592;37.610;2023-05-07T01:10:56;8.85;;;3.78;;
79691;SDS011;69158;55.592;37.610;2023-05-07T01:13:43;10.82;;;4.63;;
79691;SDS011;69158;55.592;37.610;2023-05-07T01:16:32;13.38;;;4.47;;
79691;SDS011;69158;55.592;37.610;2023-05-07T01:19:18;15.40;;;4.72;;
79691;SDS011;69158;55.592;37.610;2023-05-07T01:22:07;8.95;;;4.28;;
79691;SDS011;69158;55.592;37.610;2023-05-07T01:24:54;11.73;;;5.18;;
79691;SDS011;69158;55.592;37.610;2023-05-07T01:27:41;9.07;;;5.07;;
79691;SDS011;69158;55.592;37.610;2023-05-07T01:30:28;12.05;;;5.10;;
79691;SDS011;69158;55.592;37.610;2023-05-07T01:33:19;10.15;;;4.00;;
79691;SDS011;69158;55.592;37.610;2023-05-07T01:36:09;14.43;;;5.43;;
79691;SDS011;69158;55.592;37.610;2023-05-07T01:38:57;10.60;;;4.30;;
79691;SDS011;69158;55.592;37.610;2023-05-07T01:41:44;13.25;;;5.63;;
79691;SDS011;69158;55.592;37.610;2023-05-07T01:44:31;8.77;;;3.95;;
79691;SDS011;69158;55.592;37.610;2023-05-07T01:47:17;10.38;;;5.40;;
79691;SDS011;69158;55.592;37.610;2023-05-07T01:50:05;9.07;;;4.38;;
79691;SDS011;69158;55.592;37.610;2023-05-07T01:52:51;8.98;;;4.60;;
79691;SDS011;69158;55.592;37.610;2023-05-07T01:55:37;9.75;;;4.75;;
79691;SDS011;69158;55.592;37.610;2023-05-07T01:58:23;10.60;;;3.55;;
79691;SDS011;69158;55.592;37.610;2023-05-07T02:01:09;9.90;;;3.95;;
79691;SDS011;69158;55.592;37.610;2023-05-07T02:03:55;15.25;;;4.38;;
79691;SDS011;69158;55.592;37.610;2023-05-07T02:06:43;12.02;;;4.47;;
79691;SDS011;69158;55.592;37.610;2023-05-07T02:09:29;9.13;;;4.00;;
79691;SDS011;69158;55.592;37.610;2023-05-07T02:12:15;8.98;;;4.15;;
79691;SDS011;69158;55.592;37.610;2023-05-07T02:15:01;8.35;;;3.97;;
79691;SDS011;69158;55.592;37.610;2023-05-07T02:18:00;10.20;;;4.15;;
79691;SDS011;69158;55.592;37.610;2023-05-07T02:20:48;12.25;;;5.20;;
79691;SDS011;69158;55.592;37.610;2023-05-07T02:23:34;8.45;;;3.92;;
79691;SDS011;69158;55.592;37.610;2023-05-07T02:26:20;11.63;;;5.85;;
79691;SDS011;69158;55.592;37.610;2023-05-07T02:29:06;10.65;;;4.40;;
79691;SDS011;69158;55.592;37.610;2023-05-07T02:31:53;10.07;;;5.30;;
79691;SDS011;69158;55.592;37.610;2023-05-07T02:34:39;13.15;;;4.82;;
79691;SDS011;69158;55.592;37.610;2023-05-07T02:37:25;10.13;;;4.35;;
79691;SDS011;69158;55.592;37.610;2023-05-07T02:40:12;8.27;;;4.15;;
79691;SDS011;69158;55.592;37.610;2023-05-07T02:42:58;8.55;;;4.00;;
79691;SDS011;69158;55.592;37.610;2023-05-07T02:45:43;10.02;;;4.80;;
79691;SDS011;69158;55.592;37.610;2023-05-07T02:48:29;9.10;;;3.50;;
79691;SDS011;69158;55.592;37.610;2023-05-07T02:51:17;12.65;;;4.55;;
79691;SDS011;69158;55.592;37.610;2023-05-07T02:54:05;8.80;;;4.05;;
79691;SDS011;69158;55.592;37.610;2023-05-07T02:56:51;12.40;;;4.45;;
79691;SDS011;69158;55.592;37.610;2023-05-07T02:59:36;9.27;;;3.70;;
79691;SDS011;69158;55.592;37.610;2023-05-07T03:02:22;9.52;;;4.13;;
79691;SDS011;69158;55.592;37.610;2023-05-07T03:05:08;12.63;;;4.65;;
79691;SDS011;69158;55.592;37.610;2023-05-07T03:07:55;9.48;;;4.18;;
79691;SDS011;69158;55.592;37.610;2023-05-07T03:10:41;10.93;;;5.70;;
79691;SDS011;69158;55.592;37.610;2023-05-07T03:13:27;10.73;;;4.88;;
79691;SDS011;69158;55.592;37.610;2023-05-07T03:16:13;10.55;;;5.25;;
79691;SDS011;69158;55.592;37.610;2023-05-07T03:18:59;9.02;;;4.45;;
79691;SDS011;69158;55.592;37.610;2023-05-07T03:21:45;9.38;;;4.60;;
79691;SDS011;69158;55.592;37.610;2023-05-07T03:24:31;13.25;;;4.50;;
79691;SDS011;69158;55.592;37.610;2023-05-07T03:27:17;11.77;;;5.47;;
79691;SDS011;69158;55.592;37.610;2023-05-07T03:30:03;11.07;;;5.30;;
79691;SDS011;69158;55.592;37.610;2023-05-07T03:32:49;10.48;;;4.82;;
79691;SDS011;69158;55.592;37.610;2023-05-07T03:35:36;12.85;;;5.68;;
79691;SDS011;69158;55.592;37.610;2023-05-07T03:38:22;11.07;;;5.05;;
79691;SDS011;69158;55.592;37.610;2023-05-07T03:41:08;8.52;;;3.83;;
79691;SDS011;69158;55.592;37.610;2023-05-07T03:43:54;9.60;;;4.95;;
79691;SDS011;69158;55.592;37.610;2023-05-07T03:46:40;8.85;;;4.10;;
79691;SDS011;69158;55.592;37.610;2023-05-07T03:49:26;10.07;;;4.18;;
79691;SDS011;69158;55.592;37.610;2023-05-07T03:52:13;8.68;;;4.85;;
79691;SDS011;69158;55.592;37.610;2023-05-07T03:54:59;9.02;;;3.60;;
79691;SDS011;69158;55.592;37.610;2023-05-07T03:57:45;9.07;;;4.18;;
79691;SDS011;69158;55.592;37.610;2023-05-07T04:00:30;7.20;;;3.67;;
79691;SDS011;69158;55.592;37.610;2023-05-07T04:03:19;8.55;;;3.13;;
79691;SDS011;69158;55.592;37.610;2023-05-07T04:06:05;8.20;;;4.05;;
79691;SDS011;69158;55.592;37.610;2023-05-07T04:08:51;7.78;;;3.85;;
79691;SDS011;69158;55.592;37.610;2023-05-07T04:11:37;9.30;;;4.50;;
79691;SDS011;69158;55.592;37.610;2023-05-07T04:14:25;7.25;;;2.75;;
79691;SDS011;69158;55.592;37.610;2023-05-07T04:17:11;6.97;;;2.83;;
79691;SDS011;69158;55.592;37.610;2023-05-07T04:19:57;7.32;;;4.45;;
79691;SDS011;69158;55.592;37.610;2023-05-07T04:22:43;8.43;;;3.10;;
79691;SDS011;69158;55.592;37.610;2023-05-07T04:25:30;7.38;;;2.75;;
79691;SDS011;69158;55.592;37.610;2023-05-07T04:28:17;7.35;;;2.75;;
79691;SDS011;69158;55.592;37.610;2023-05-07T04:31:03;8.18;;;3.58;;
79691;SDS011;69158;55.592;37.610;2023-05-07T04:33:51;7.40;;;2.55;;
79691;SDS011;69158;55.592;37.610;2023-05-07T04:36:38;6.60;;;3.20;;
79691;SDS011;69158;55.592;37.610;2023-05-07T04:39:24;7.85;;;2.70;;
79691;SDS011;69158;55.592;37.610;2023-05-07T04:42:14;6.07;;;2.63;;
79691;SDS011;69158;55.592;37.610;2023-05-07T04:45:01;5.50;;;2.03;;
79691;SDS011;69158;55.592;37.610;2023-05-07T04:47:47;8.88;;;3.35;;
79691;SDS011;69158;55.592;37.610;2023-05-07T04:50:33;7.28;;;2.88;;
79691;SDS011;69158;55.592;37.610;2023-05-07T04:53:19;5.13;;;1.83;;
79691;SDS011;69158;55.592;37.610;2023-05-07T04:56:06;7.22;;;2.40;;
79691;SDS011;69158;55.592;37.610;2023-05-07T04:58:52;5.20;;;1.83;;
79691;SDS011;69158;55.592;37.610;2023-05-07T05:01:39;6.00;;;2.70;;
79691;SDS011;69158;55.592;37.610;2023-05-07T05:04:25;6.10;;;1.85;;
79691;SDS011;69158;55.592;37.610;2023-05-07T05:07:11;6.30;;;2.35;;
79691;SDS011;69158;55.592;37.610;2023-05-07T05:09:57;5.82;;;2.40;;
79691;SDS011;69158;55.592;37.610;2023-05-07T05:12:43;6.00;;;2.35;;
79691;SDS011;69158;55.592;37.610;2023-05-07T05:15:29;6.75;;;2.40;;
79691;SDS011;69158;55.592;37.610;2023-05-07T05:18:15;6.50;;;2.10;;
79691;SDS011;69158;55.592;37.610;2023-05-07T05:21:02;6.47;;;2.42;;
79691;SDS011;69158;55.592;37.610;2023-05-07T05:23:48;5.38;;;2.03;;
79691;SDS011;69158;55.592;37.610;2023-05-07T05:26:34;6.38;;;1.90;;
79691;SDS011;69158;55.592;37.610;2023-05-07T05:29:20;5.80;;;1.95;;
79691;SDS011;69158;55.592;37.610;2023-05-07T05:32:06;7.05;;;2.20;;
79691;SDS011;69158;55.592;37.610;2023-05-07T05:34:52;5.95;;;2.53;;
79691;SDS011;69158;55.592;37.610;2023-05-07T05:37:38;4.75;;;1.75;;
79691;SDS011;69158;55.592;37.610;2023-05-07T05:40:24;5.45;;;1.80;;
79691;SDS011;69158;55.592;37.610;2023-05-07T05:43:10;6.00;;;1.88;;
79691;SDS011;69158;55.592;37.610;2023-05-07T05:45:56;6.18;;;2.47;;
79691;SDS011;69158;55.592;37.610;2023-05-07T05:48:43;6.70;;;2.10;;
79691;SDS011;69158;55.592;37.610;2023-05-07T05:51:29;5.32;;;2.53;;
79691;SDS011;69158;55.592;37.610;2023-05-07T05:54:14;5.40;;;1.65;;
79691;SDS011;69158;55.592;37.610;2023-05-07T05:57:00;5.72;;;1.90;;
79691;SDS011;69158;55.592;37.610;2023-05-07T05:59:49;7.47;;;1.98;;
79691;SDS011;69158;55.592;37.610;2023-05-07T06:02:36;5.95;;;2.30;;
79691;SDS011;69158;55.592;37.610;2023-05-07T06:05:22;6.63;;;2.72;;
79691;SDS011;69158;55.592;37.610;2023-05-07T06:08:09;5.85;;;2.10;;
79691;SDS011;69158;55.592;37.610;2023-05-07T06:10:55;5.65;;;2.25;;
79691;SDS011;69158;55.592;37.610;2023-05-07T06:13:41;5.85;;;2.72;;
79691;SDS011;69158;55.592;37.610;2023-05-07T06:16:27;7.05;;;4.57;;
79691;SDS011;69158;55.592;37.610;2023-05-07T06:19:13;5.85;;;2.53;;
79691;SDS011;69158;55.592;37.610;2023-05-07T06:22:01;6.15;;;3.22;;
79691;SDS011;69158;55.592;37.610;2023-05-07T06:24:47;8.10;;;2.20;;
79691;SDS011;69158;55.592;37.610;2023-05-07T06:27:33;7.85;;;3.63;;
79691;SDS011;69158;55.592;37.610;2023-05-07T06:30:19;5.10;;;2.30;;
79691;SDS011;69158;55.592;37.610;2023-05-07T06:33:05;6.72;;;3.03;;
79691;SDS011;69158;55.592;37.610;2023-05-07T06:35:51;7.32;;;1.80;;
79691;SDS011;69158;55.592;37.610;2023-05-07T06:38:37;8.00;;;2.80;;
79691;SDS011;69158;55.592;37.610;2023-05-07T06:41:26;7.85;;;3.35;;
79691;SDS011;69158;55.592;37.610;2023-05-07T06:44:12;7.50;;;2.42;;
79691;SDS011;69158;55.592;37.610;2023-05-07T06:46:57;7.32;;;2.13;;
79691;SDS011;69158;55.592;37.610;2023-05-07T06:49:44;5.82;;;2.05;;
79691;SDS011;69158;55.592;37.610;2023-05-07T06:52:30;6.90;;;2.17;;
79691;SDS011;69158;55.592;37.610;2023-05-07T06:55:15;5.88;;;2.40;;
79691;SDS011;69158;55.592;37.610;2023-05-07T06:58:01;6.57;;;2.10;;
79691;SDS011;69158;55.592;37.610;2023-05-07T07:00:47;6.88;;;2.95;;
79691;SDS011;69158;55.592;37.610;2023-05-07T07:03:33;7.05;;;3.95;;
79691;SDS011;69158;55.592;37.610;2023-05-07T07:06:19;7.25;;;2.47;;
79691;SDS011;69158;55.592;37.610;2023-05-07T07:09:05;8.35;;;3.97;;
79691;SDS011;69158;55.592;37.610;2023-05-07T07:11:51;7.38;;;2.40;;
79691;SDS011;69158;55.592;37.610;2023-05-07T07:14:37;5.38;;;2.70;;
79691;SDS011;69158;55.592;37.610;2023-05-07T07:17:23;6.03;;;1.95;;
79691;SDS011;69158;55.592;37.610;2023-05-07T07:20:09;9.50;;;1.90;;
79691;SDS011;69158;55.592;37.610;2023-05-07T07:22:56;6.22;;;3.08;;
79691;SDS011;69158;55.592;37.610;2023-05-07T07:25:42;5.13;;;1.98;;
79691;SDS011;69158;55.592;37.610;2023-05-07T07:28:27;6.80;;;2.78;;
79691;SDS011;69158;55.592;37.610;2023-05-07T07:31:13;7.78;;;6.05;;
79691;SDS011;69158;55.592;37.610;2023-05-07T07:34:00;6.05;;;2.33;;
79691;SDS011;69158;55.592;37.610;2023-05-07T07:36:46;7.28;;;2.97;;
79691;SDS011;69158;55.592;37.610;2023-05-07T07:39:32;5.20;;;2.40;;
79691;SDS011;69158;55.592;37.610;2023-05-07T07:42:18;6.57;;;1.60;;
79691;SDS011;69158;55.592;37.610;2023-05-07T07:45:04;7.20;;;2.60;;
79691;SDS011;69158;55.592;37.610;2023-05-07T07:47:51;5.30;;;1.55;;
79691;SDS011;69158;55.592;37.610;2023-05-07T07:50:37;8.25;;;1.77;;
79691;SDS011;69158;55.592;37.610;2023-05-07T07:53:25;7.85;;;2.38;;
79691;SDS011;69158;55.592;37.610;2023-05-07T07:56:11;6.93;;;3.35;;
79691;SDS011;69158;55.592;37.610;2023-05-07T07:58:57;7.10;;;4.55;;
79691;SDS011;69158;55.592;37.610;2023-05-07T08:01:46;6.03;;;3.70;;
79691;SDS011;69158;55.592;37.610;2023-05-07T08:04:35;6.45;;;2.42;;
79691;SDS011;69158;55.592;37.610;2023-05-07T08:07:22;6.65;;;3.10;;
79691;SDS011;69158;55.592;37.610;2023-05-07T08:10:08;6.07;;;1.83;;
79691;SDS011;69158;55.592;37.610;2023-05-07T08:12:55;7.53;;;4.40;;
79691;SDS011;69158;55.592;37.610;2023-05-07T08:15:43;4.78;;;2.00;;
79691;SDS011;69158;55.592;37.610;2023-05-07T08:18:32;7.25;;;3.83;;
79691;SDS011;69158;55.592;37.610;2023-05-07T08:21:18;6.82;;;3.30;;
79691;SDS011;69158;55.592;37.610;2023-05-07T08:24:04;6.70;;;2.67;;
79691;SDS011;69158;55.592;37.610;2023-05-07T08:26:50;6.53;;;2.20;;
79691;SDS011;69158;55.592;37.610;2023-05-07T08:29:36;6.82;;;3.00;;
79691;SDS011;69158;55.592;37.610;2023-05-07T08:32:22;5.68;;;3.05;;
79691;SDS011;69158;55.592;37.610;2023-05-07T08:35:08;5.78;;;1.48;;
79691;SDS011;69158;55.592;37.610;2023-05-07T08:37:55;5.65;;;1.30;;
79691;SDS011;69158;55.592;37.610;2023-05-07T08:40:41;5.80;;;1.88;;
79691;SDS011;69158;55.592;37.610;2023-05-07T08:43:27;6.82;;;2.03;;
79691;SDS011;69158;55.592;37.610;2023-05-07T08:46:18;7.82;;;2.75;;
79691;SDS011;69158;55.592;37.610;2023-05-07T08:51:53;6.05;;;2.13;;
79691;SDS011;69158;55.592;37.610;2023-05-07T08:54:40;5.55;;;1.80;;
79691;SDS011;69158;55.592;37.610;2023-05-07T08:57:26;7.10;;;1.98;;
79691;SDS011;69158;55.592;37.610;2023-05-07T09:00:12;5.72;;;2.03;;
79691;SDS011;69158;55.592;37.610;2023-05-07T09:02:59;7.72;;;2.08;;
79691;SDS011;69158;55.592;37.610;2023-05-07T09:05:49;6.45;;;1.80;;
79691;SDS011;69158;55.592;37.610;2023-05-07T09:08:35;5.43;;;2.20;;
79691;SDS011;69158;55.592;37.610;2023-05-07T09:11:22;5.88;;;1.50;;
79691;SDS011;69158;55.592;37.610;2023-05-07T09:14:09;5.35;;;2.15;;
79691;SDS011;69158;55.592;37.610;2023-05-07T09:16:55;5.60;;;2.40;;
79691;SDS011;69158;55.592;37.610;2023-05-07T09:19:43;5.57;;;2.05;;
79691;SDS011;69158;55.592;37.610;2023-05-07T09:22:36;7.57;;;4.57;;
79691;SDS011;69158;55.592;37.610;2023-05-07T09:25:29;6.50;;;5.10;;
79691;SDS011;69158;55.592;37.610;2023-05-07T09:28:16;5.68;;;2.13;;
79691;SDS011;69158;55.592;37.610;2023-05-07T09:31:02;10.50;;;3.60;;
79691;SDS011;69158;55.592;37.610;2023-05-07T09:33:52;8.55;;;1.58;;
79691;SDS011;69158;55.592;37.610;2023-05-07T09:36:38;5.93;;;2.20;;
79691;SDS011;69158;55.592;37.610;2023-05-07T09:39:24;5.82;;;1.73;;
79691;SDS011;69158;55.592;37.610;2023-05-07T09:42:11;4.90;;;2.20;;
79691;SDS011;69158;55.592;37.610;2023-05-07T09:44:58;6.22;;;2.38;;
79691;SDS011;69158;55.592;37.610;2023-05-07T09:47:45;6.63;;;1.55;;
79691;SDS011;69158;55.592;37.610;2023-05-07T09:50:40;5.90;;;2.25;;
79691;SDS011;69158;55.592;37.610;2023-05-07T09:53:33;5.63;;;1.40;;
79691;SDS011;69158;55.592;37.610;2023-05-07T09:56:20;6.20;;;4.32;;
79691;SDS011;69158;55.592;37.610;2023-05-07T09:59:07;5.38;;;1.95;;
79691;SDS011;69158;55.592;37.610;2023-05-07T10:01:55;8.18;;;2.97;;
79691;SDS011;69158;55.592;37.610;2023-05-07T10:04:43;4.93;;;1.40;;
79691;SDS011;69158;55.592;37.610;2023-05-07T10:07:30;5.95;;;2.85;;
79691;SDS011;69158;55.592;37.610;2023-05-07T10:10:19;4.78;;;1.98;;
79691;SDS011;69158;55.592;37.610;2023-05-07T10:13:06;7.60;;;2.35;;
79691;SDS011;69158;55.592;37.610;2023-05-07T10:15:56;6.78;;;3.55;;
79691;SDS011;69158;55.592;37.610;2023-05-07T10:18:42;7.40;;;3.13;;
79691;SDS011;69158;55.592;37.610;2023-05-07T10:21:29;6.28;;;2.13;;
79691;SDS011;69158;55.592;37.610;2023-05-07T10:24:29;6.43;;;1.80;;
79691;SDS011;69158;55.592;37.610;2023-05-07T10:27:19;5.72;;;1.95;;
79691;SDS011;69158;55.592;37.610;2023-05-07T10:30:26;7.00;;;2.70;;
79691;SDS011;69158;55.592;37.610;2023-05-07T10:33:19;5.22;;;2.00;;
79691;SDS011;69158;55.592;37.610;2023-05-07T10:36:11;8.02;;;2.20;;
79691;SDS011;69158;55.592;37.610;2023-05-07T10:38:58;5.10;;;1.92;;
79691;SDS011;69158;55.592;37.610;2023-05-07T10:41:44;6.90;;;3.38;;
79691;SDS011;69158;55.592;37.610;2023-05-07T10:44:30;6.28;;;2.35;;
79691;SDS011;69158;55.592;37.610;2023-05-07T10:47:16;5.95;;;2.15;;
79691;SDS011;69158;55.592;37.610;2023-05-07T10:56:24;7.15;;;2.20;;
79691;SDS011;69158;55.592;37.610;2023-05-07T11:02:08;7.25;;;2.70;;
79691;SDS011;69158;55.592;37.610;2023-05-07T11:08:08;6.30;;;3.72;;
79691;SDS011;69158;55.592;37.610;2023-05-07T11:11:45;5.70;;;1.77;;
79691;SDS011;69158;55.592;37.610;2023-05-07T11:14:43;5.22;;;1.67;;
79691;SDS011;69158;55.592;37.610;2023-05-07T11:17:30;5.38;;;2.33;;
79691;SDS011;69158;55.592;37.610;2023-05-07T11:20:17;6.65;;;2.47;;
79691;SDS011;69158;55.592;37.610;2023-05-07T11:23:03;6.15;;;1.63;;
79691;SDS011;69158;55.592;37.610;2023-05-07T11:25:49;5.75;;;1.95;;
79691;SDS011;69158;55.592;37.610;2023-05-07T11:28:39;6.15;;;1.73;;
79691;SDS011;69158;55.592;37.610;2023-05-07T11:31:27;6.65;;;3.53;;
79691;SDS011;69158;55.592;37.610;2023-05-07T11:34:14;5.03;;;2.22;;
79691;SDS011;69158;55.592;37.610;2023-05-07T11:37:06;5.93;;;2.33;;
79691;SDS011;69158;55.592;37.610;2023-05-07T11:40:08;5.80;;;2.45;;
79691;SDS011;69158;55.592;37.610;2023-05-07T11:42:56;5.20;;;1.90;;
79691;SDS011;69158;55.592;37.610;2023-05-07T11:45:42;6.13;;;1.35;;
79691;SDS011;69158;55.592;37.610;2023-05-07T11:48:28;4.95;;;1.80;;
79691;SDS011;69158;55.592;37.610;2023-05-07T11:51:14;4.90;;;1.33;;
79691;SDS011;69158;55.592;37.610;2023-05-07T11:54:04;5.47;;;1.80;;
79691;SDS011;69158;55.592;37.610;2023-05-07T11:56:54;5.80;;;2.08;;
79691;SDS011;69158;55.592;37.610;2023-05-07T11:59:41;4.55;;;1.55;;
79691;SDS011;69158;55.592;37.610;2023-05-07T12:02:29;6.70;;;2.60;;
79691;SDS011;69158;55.592;37.610;2023-05-07T12:05:16;6.93;;;1.60;;
79691;SDS011;69158;55.592;37.610;2023-05-07T12:08:02;6.60;;;2.20;;
79691;SDS011;69158;55.592;37.610;2023-05-07T12:10:49;5.25;;;2.00;;
79691;SDS011;69158;55.592;37.610;2023-05-07T12:13:35;6.80;;;2.42;;
79691;SDS011;69158;55.592;37.610;2023-05-07T12:16:21;9.73;;;3.67;;
79691;SDS011;69158;55.592;37.610;2023-05-07T12:19:08;5.50;;;3.03;;
79691;SDS011;69158;55.592;37.610;2023-05-07T12:21:57;5.72;;;3.30;;
79691;SDS011;69158;55.592;37.610;2023-05-07T12:24:44;5.90;;;1.55;;
79691;SDS011;69158;55.592;37.610;2023-05-07T12:27:31;5.18;;;2.17;;
79691;SDS011;69158;55.592;37.610;2023-05-07T12:30:17;5.50;;;1.85;;
79691;SDS011;69158;55.592;37.610;2023-05-07T12:33:04;6.97;;;2.05;;
79691;SDS011;69158;55.592;37.610;2023-05-07T12:35:50;6.25;;;1.75;;
79691;SDS011;69158;55.592;37.610;2023-05-07T12:38:37;6.75;;;1.92;;
79691;SDS011;69158;55.592;37.610;2023-05-07T12:41:24;7.65;;;1.73;;
79691;SDS011;69158;55.592;37.610;2023-05-07T12:44:12;6.50;;;1.70;;
79691;SDS011;69158;55.592;37.610;2023-05-07T12:47:03;5.55;;;1.80;;
79691;SDS011;69158;55.592;37.610;2023-05-07T12:49:49;5.95;;;1.58;;
79691;SDS011;69158;55.592;37.610;2023-05-07T12:52:35;5.25;;;1.95;;
79691;SDS011;69158;55.592;37.610;2023-05-07T12:58:22;6.32;;;1.63;;
79691;SDS011;69158;55.592;37.610;2023-05-07T13:01:11;6.15;;;2.72;;
79691;SDS011;69158;55.592;37.610;2023-05-07T13:06:54;8.50;;;5.22;;
79691;SDS011;69158;55.592;37.610;2023-05-07T13:09:53;5.43;;;1.45;;
79691;SDS011;69158;55.592;37.610;2023-05-07T13:13:11;5.38;;;2.25;;
79691;SDS011;69158;55.592;37.610;2023-05-07T13:15:58;5.40;;;1.77;;
79691;SDS011;69158;55.592;37.610;2023-05-07T13:21:33;6.22;;;1.48;;
79691;SDS011;69158;55.592;37.610;2023-05-07T13:24:22;5.82;;;2.03;;
79691;SDS011;69158;55.592;37.610;2023-05-07T13:27:08;5.85;;;2.15;;
79691;SDS011;69158;55.592;37.610;2023-05-07T13:29:56;6.22;;;2.30;;
79691;SDS011;69158;55.592;37.610;2023-05-07T13:32:45;6.82;;;2.22;;
79691;SDS011;69158;55.592;37.610;2023-05-07T13:35:38;6.05;;;2.00;;
79691;SDS011;69158;55.592;37.610;2023-05-07T13:38:24;8.18;;;2.15;;
79691;SDS011;69158;55.592;37.610;2023-05-07T13:41:10;5.30;;;3.05;;
79691;SDS011;69158;55.592;37.610;2023-05-07T13:43:58;5.25;;;1.95;;
79691;SDS011;69158;55.592;37.610;2023-05-07T13:46:44;6.82;;;2.17;;
79691;SDS011;69158;55.592;37.610;2023-05-07T13:49:30;6.63;;;2.50;;
79691;SDS011;69158;55.592;37.610;2023-05-07T13:52:16;5.53;;;1.80;;
79691;SDS011;69158;55.592;37.610;2023-05-07T13:55:03;8.48;;;2.25;;
79691;SDS011;69158;55.592;37.610;2023-05-07T13:57:56;5.88;;;2.10;;
79691;SDS011;69158;55.592;37.610;2023-05-07T14:00:42;5.97;;;2.00;;
79691;SDS011;69158;55.592;37.610;2023-05-07T14:03:29;4.93;;;1.73;;
79691;SDS011;69158;55.592;37.610;2023-05-07T14:06:19;6.00;;;1.58;;
79691;SDS011;69158;55.592;37.610;2023-05-07T14:09:05;7.55;;;2.38;;
79691;SDS011;69158;55.592;37.610;2023-05-07T14:11:51;9.57;;;1.58;;
79691;SDS011;69158;55.592;37.610;2023-05-07T14:14:39;5.10;;;1.48;;
79691;SDS011;69158;55.592;37.610;2023-05-07T14:17:25;7.40;;;1.52;;
79691;SDS011;69158;55.592;37.610;2023-05-07T14:20:15;5.90;;;2.08;;
79691;SDS011;69158;55.592;37.610;2023-05-07T14:23:01;8.80;;;1.38;;
79691;SDS011;69158;55.592;37.610;2023-05-07T14:25:49;6.53;;;1.40;;
79691;SDS011;69158;55.592;37.610;2023-05-07T14:28:39;6.45;;;1.52;;
79691;SDS011;69158;55.592;37.610;2023-05-07T14:31:27;5.70;;;1.80;;
79691;SDS011;69158;55.592;37.610;2023-05-07T14:34:14;7.05;;;1.90;;
79691;SDS011;69158;55.592;37.610;2023-05-07T14:37:00;8.05;;;2.10;;
79691;SDS011;69158;55.592;37.610;2023-05-07T14:39:46;7.60;;;2.70;;
79691;SDS011;69158;55.592;37.610;2023-05-07T14:42:33;14.93;;;5.97;;
79691;SDS011;69158;55.592;37.610;2023-05-07T14:45:21;10.57;;;3.92;;
79691;SDS011;69158;55.592;37.610;2023-05-07T14:48:07;9.75;;;3.88;;
79691;SDS011;69158;55.592;37.610;2023-05-07T14:51:00;9.43;;;3.60;;
79691;SDS011;69158;55.592;37.610;2023-05-07T14:53:46;11.18;;;4.35;;
79691;SDS011;69158;55.592;37.610;2023-05-07T14:56:38;10.55;;;3.40;;
79691;SDS011;69158;55.592;37.610;2023-05-07T14:59:24;9.05;;;3.40;;
79691;SDS011;69158;55.592;37.610;2023-05-07T15:02:35;7.50;;;2.70;;
79691;SDS011;69158;55.592;37.610;2023-05-07T15:05:22;9.98;;;2.42;;
79691;SDS011;69158;55.592;37.610;2023-05-07T15:08:08;7.07;;;2.75;;
79691;SDS011;69158;55.592;37.610;2023-05-07T15:10:55;7.68;;;2.17;;
79691;SDS011;69158;55.592;37.610;2023-05-07T15:13:44;5.72;;;1.83;;
79691;SDS011;69158;55.592;37.610;2023-05-07T15:16:10;7.25;;;2.80;;
79691;SDS011;69158;55.592;37.610;2023-05-07T15:18:54;7.07;;;2.85;;
79691;SDS011;69158;55.592;37.610;2023-05-07T15:21:22;8.07;;;2.22;;
79691;SDS011;69158;55.592;37.610;2023-05-07T15:24:10;6.43;;;2.28;;
79691;SDS011;69158;55.592;37.610;2023-05-07T15:26:36;8.52;;;2.65;;
79691;SDS011;69158;55.592;37.610;2023-05-07T15:29:01;6.78;;;2.25;;
79691;SDS011;69158;55.592;37.610;2023-05-07T15:31:33;7.57;;;3.85;;
79691;SDS011;69158;55.592;37.610;2023-05-07T15:34:17;6.68;;;2.70;;
79691;SDS011;69158;55.592;37.610;2023-05-07T15:37:01;13.65;;;3.80;;
79691;SDS011;69158;55.592;37.610;2023-05-07T15:39:30;8.80;;;2.03;;
79691;SDS011;69158;55.592;37.610;2023-05-07T15:41:58;6.00;;;2.40;;
79691;SDS011;69158;55.592;37.610;2023-05-07T15:44:24;5.40;;;1.92;;
79691;SDS011;69158;55.592;37.610;2023-05-07T15:46:55;7.75;;;2.13;;
79691;SDS011;69158;55.592;37.610;2023-05-07T15:49:30;6.53;;;2.40;;
79691;SDS011;69158;55.592;37.610;2023-05-07T15:51:59;8.55;;;2.60;;
79691;SDS011;69158;55.592;37.610;2023-05-07T15:54:44;11.48;;;3.67;;
79691;SDS011;69158;55.592;37.610;2023-05-07T15:57:30;5.70;;;1.98;;
79691;SDS011;69158;55.592;37.610;2023-05-07T15:59:57;6.82;;;2.88;;
79691;SDS011;69158;55.592;37.610;2023-05-07T16:02:23;8.30;;;3.25;;
79691;SDS011;69158;55.592;37.610;2023-05-07T16:05:09;8.85;;;2.15;;
79691;SDS011;69158;55.592;37.610;2023-05-07T16:07:56;9.10;;;2.65;;
79691;SDS011;69158;55.592;37.610;2023-05-07T16:10:50;5.75;;;2.20;;
79691;SDS011;69158;55.592;37.610;2023-05-07T16:13:40;8.35;;;2.42;;
79691;SDS011;69158;55.592;37.610;2023-05-07T16:16:33;6.03;;;1.73;;
79691;SDS011;69158;55.592;37.610;2023-05-07T16:19:22;6.43;;;2.53;;
79691;SDS011;69158;55.592;37.610;2023-05-07T16:22:08;6.93;;;2.33;;
79691;SDS011;69158;55.592;37.610;2023-05-07T16:25:06;6.93;;;2.42;;
79691;SDS011;69158;55.592;37.610;2023-05-07T16:28:10;10.20;;;2.25;;
79691;SDS011;69158;55.592;37.610;2023-05-07T16:31:00;7.68;;;2.40;;
79691;SDS011;69158;55.592;37.610;2023-05-07T16:34:20;5.95;;;3.00;;
79691;SDS011;69158;55.592;37.610;2023-05-07T16:37:41;6.65;;;2.67;;
79691;SDS011;69158;55.592;37.610;2023-05-07T16:40:27;7.47;;;2.60;;
79691;SDS011;69158;55.592;37.610;2023-05-07T16:43:13;6.05;;;2.05;;
79691;SDS011;69158;55.592;37.610;2023-05-07T16:45:59;6.22;;;2.38;;
79691;SDS011;69158;55.592;37.610;2023-05-07T16:48:48;8.85;;;2.55;;
79691;SDS011;69158;55.592;37.610;2023-05-07T16:51:36;8.30;;;2.15;;
79691;SDS011;69158;55.592;37.610;2023-05-07T16:54:27;5.78;;;2.03;;